createdAt,value
2019-05-22T00:01:38.015Z,9.53
2019-05-22T00:04:26.170Z,4.33
2019-05-22T00:06:56.735Z,5.53
2019-05-22T00:09:28.459Z,3.80
2019-05-22T00:11:59.216Z,5.07
2019-05-22T00:14:29.611Z,4.80
2019-05-22T00:16:59.377Z,4.27
2019-05-22T00:19:29.079Z,5.40
2019-05-22T00:22:17.246Z,3.90
2019-05-22T00:24:47.405Z,3.37
2019-05-22T00:27:18.242Z,6.77
2019-05-22T00:29:48.939Z,4.90
2019-05-22T00:32:18.174Z,6.40
2019-05-22T00:34:49.170Z,3.57
2019-05-22T00:37:18.860Z,5.47
2019-05-22T00:39:48.690Z,4.77
2019-05-22T00:42:19.042Z,4.80
2019-05-22T00:44:50.522Z,8.30
2019-05-22T00:47:19.950Z,3.50
2019-05-22T00:49:50.711Z,4.13
2019-05-22T00:52:41.079Z,4.97
2019-05-22T00:55:28.002Z,7.20
2019-05-22T00:58:04.778Z,7.03
2019-05-22T01:00:37.267Z,11.20
2019-05-22T01:03:07.579Z,4.27
2019-05-22T01:05:39.178Z,7.03
2019-05-22T01:08:08.446Z,5.73
2019-05-22T01:10:39.189Z,4.00
2019-05-22T01:13:09.873Z,4.60
2019-05-22T01:15:40.682Z,5.30
2019-05-22T01:18:11.484Z,5.03
2019-05-22T01:20:42.310Z,5.97
2019-05-22T01:23:17.906Z,19.80
2019-05-22T01:25:48.000Z,12.87
2019-05-22T01:28:17.234Z,6.20
2019-05-22T01:30:57.359Z,7.90
2019-05-22T01:33:32.553Z,7.83
2019-05-22T01:36:16.382Z,5.33
2019-05-22T01:38:47.685Z,4.93
2019-05-22T01:41:20.983Z,3.03
2019-05-22T01:43:52.631Z,5.87
2019-05-22T01:46:22.730Z,2.67
2019-05-22T01:48:54.150Z,2.60
2019-05-22T01:51:23.605Z,3.97
2019-05-22T01:53:54.051Z,4.73
2019-05-22T01:56:24.804Z,3.13
2019-05-22T01:58:54.981Z,6.00
2019-05-22T02:01:26.798Z,3.23
2019-05-22T02:04:02.239Z,3.70
2019-05-22T02:06:32.473Z,2.60
2019-05-22T02:09:30.931Z,2.63
2019-05-22T02:12:05.781Z,3.37
2019-05-22T02:14:35.020Z,5.60
2019-05-22T02:17:04.952Z,2.87
2019-05-22T02:19:35.193Z,5.27
2019-05-22T02:22:05.938Z,2.50
2019-05-22T02:24:36.517Z,4.00
2019-05-22T02:27:06.089Z,3.43
2019-05-22T02:29:36.053Z,5.63
2019-05-22T02:32:06.866Z,7.40
2019-05-22T02:34:37.154Z,3.47
2019-05-22T02:37:07.629Z,7.57
2019-05-22T02:39:38.372Z,11.73
2019-05-22T02:42:13.198Z,9.30
2019-05-22T02:44:42.717Z,2.87
2019-05-22T02:47:20.138Z,4.33
2019-05-22T02:49:45.482Z,8.43
2019-05-22T02:52:15.546Z,9.37
2019-05-22T02:54:45.315Z,3.20
2019-05-22T02:57:14.769Z,4.47
2019-05-22T02:59:43.919Z,3.37
2019-05-22T03:02:14.207Z,7.93
2019-05-22T03:05:11.206Z,4.57
2019-05-22T03:07:40.710Z,3.27
2019-05-22T03:10:12.216Z,2.97
2019-05-22T03:12:41.780Z,2.67
2019-05-22T03:15:16.469Z,3.57
2019-05-22T03:17:47.382Z,2.40
2019-05-22T03:20:19.321Z,5.77
2019-05-22T03:23:33.653Z,3.10
2019-05-22T03:26:02.814Z,4.93
2019-05-22T03:28:31.991Z,6.17
2019-05-22T03:31:01.196Z,8.83
2019-05-22T03:33:30.847Z,4.97
2019-05-22T03:36:12.198Z,2.57
2019-05-22T03:38:41.877Z,2.40
2019-05-22T03:41:12.078Z,3.40
2019-05-22T03:43:44.055Z,3.87
2019-05-22T03:46:33.323Z,6.20
2019-05-22T03:49:02.908Z,2.73
2019-05-22T03:51:32.505Z,10.63
2019-05-22T03:54:02.008Z,10.40
2019-05-22T03:56:31.226Z,2.37
2019-05-22T03:59:00.901Z,1.90
2019-05-22T04:01:31.655Z,3.27
2019-05-22T04:04:02.431Z,1.87
2019-05-22T04:06:33.442Z,2.00
2019-05-22T04:09:12.479Z,2.97
2019-05-22T04:11:44.974Z,2.63
2019-05-22T04:14:14.937Z,1.83
2019-05-22T04:16:45.194Z,1.70
2019-05-22T04:19:15.762Z,1.77
2019-05-22T04:21:45.961Z,2.47
2019-05-22T04:24:15.921Z,2.30
2019-05-22T04:26:45.121Z,1.60
2019-05-22T04:29:14.821Z,2.80
2019-05-22T04:31:49.614Z,1.50
2019-05-22T04:34:19.957Z,1.30
2019-05-22T04:36:50.089Z,1.37
2019-05-22T04:39:24.283Z,2.10
2019-05-22T04:41:54.130Z,1.17
2019-05-22T04:44:23.298Z,1.10
2019-05-22T04:46:52.770Z,1.40
2019-05-22T04:49:21.947Z,1.37
2019-05-22T04:51:51.140Z,1.87
2019-05-22T04:54:20.340Z,1.50
2019-05-22T04:56:50.005Z,1.43
2019-05-22T04:59:19.269Z,1.43
2019-05-22T05:01:48.999Z,1.50
2019-05-22T05:04:18.817Z,1.20
2019-05-22T05:06:47.981Z,1.40
2019-05-22T05:09:17.697Z,1.33
2019-05-22T05:11:49.652Z,1.23
2019-05-22T05:14:19.053Z,1.20
2019-05-22T05:16:48.749Z,1.50
2019-05-22T05:19:18.040Z,1.60
2019-05-22T05:21:47.301Z,1.37
2019-05-22T05:24:16.441Z,1.50
2019-05-22T05:26:46.263Z,1.70
2019-05-22T05:29:31.048Z,2.70
2019-05-22T05:32:01.461Z,1.50
2019-05-22T05:34:56.408Z,1.50
2019-05-22T05:37:26.377Z,1.60
2019-05-22T05:40:40.345Z,1.40
2019-05-22T05:43:19.368Z,1.60
2019-05-22T05:45:48.772Z,1.50
2019-05-22T05:48:24.092Z,2.23
2019-05-22T05:51:29.084Z,1.70
2019-05-22T05:54:05.588Z,1.90
2019-05-22T05:56:35.663Z,1.57
2019-05-22T05:59:05.738Z,1.87
2019-05-22T06:01:42.669Z,1.60
2019-05-22T06:04:11.759Z,1.60
2019-05-22T06:07:18.355Z,1.80
2019-05-22T06:09:50.522Z,1.90
2019-05-22T06:12:19.942Z,1.70
2019-05-22T06:14:49.213Z,2.10
2019-05-22T06:18:13.884Z,2.03
2019-05-22T06:20:43.073Z,1.87
2019-05-22T06:23:52.461Z,1.67
2019-05-22T06:27:02.455Z,1.87
2019-05-22T06:29:55.863Z,1.90
2019-05-22T06:33:04.229Z,1.87
2019-05-22T06:35:35.283Z,2.00
2019-05-22T06:38:27.707Z,1.87
2019-05-22T06:40:56.896Z,2.20
2019-05-22T06:44:11.986Z,2.40
2019-05-22T06:46:44.562Z,2.60
2019-05-22T06:49:44.495Z,2.50
2019-05-22T06:52:13.729Z,2.73
2019-05-22T06:54:43.009Z,2.70
2019-05-22T06:57:15.479Z,2.43
2019-05-22T06:59:46.609Z,2.77
2019-05-22T07:02:17.337Z,2.70
2019-05-22T07:04:47.319Z,3.20
2019-05-22T07:07:17.448Z,2.53
2019-05-22T07:09:46.635Z,2.90
2019-05-22T07:12:18.314Z,2.50
2019-05-22T07:15:47.557Z,2.47
2019-05-22T07:18:20.186Z,2.63
2019-05-22T07:20:50.471Z,2.60
2019-05-22T07:23:23.529Z,2.40
2019-05-22T07:25:53.545Z,2.10
2019-05-22T07:28:23.278Z,2.73
2019-05-22T07:30:52.530Z,3.30
2019-05-22T07:33:22.453Z,2.70
2019-05-22T07:36:08.607Z,3.17
2019-05-22T07:38:23.557Z,4.40
2019-05-22T07:40:53.124Z,3.63
2019-05-22T07:43:23.214Z,3.03
2019-05-22T07:45:52.737Z,3.37
2019-05-22T07:48:25.741Z,3.67
2019-05-22T07:50:55.324Z,3.57
2019-05-22T07:53:25.276Z,3.80
2019-05-22T07:55:54.821Z,4.40
2019-05-22T07:58:24.032Z,4.20
2019-05-22T08:01:00.763Z,4.00
2019-05-22T08:03:31.692Z,4.60
2019-05-22T08:06:01.425Z,4.97
2019-05-22T08:08:33.278Z,4.43
2019-05-22T08:11:04.093Z,4.90
2019-05-22T08:13:33.954Z,4.60
2019-05-22T08:16:03.132Z,4.77
2019-05-22T08:18:36.148Z,4.60
2019-05-22T08:21:05.329Z,5.23
2019-05-22T08:23:34.486Z,5.70
2019-05-22T08:26:03.651Z,5.37
2019-05-22T08:28:33.271Z,5.13
2019-05-22T08:31:02.856Z,6.03
2019-05-22T08:33:32.759Z,5.83
2019-05-22T08:36:02.072Z,6.03
2019-05-22T08:38:32.749Z,6.67
2019-05-22T08:41:03.051Z,7.10
2019-05-22T08:43:49.597Z,7.13
2019-05-22T08:46:04.434Z,6.57
2019-05-22T08:48:34.601Z,6.00
2019-05-22T08:51:05.001Z,5.40
2019-05-22T08:53:46.639Z,4.90
2019-05-22T08:56:05.247Z,5.30
2019-05-22T08:58:36.711Z,5.40
2019-05-22T09:01:05.821Z,4.57
2019-05-22T09:03:35.377Z,4.10
2019-05-22T09:06:04.492Z,5.70
2019-05-22T09:08:33.661Z,4.60
2019-05-22T09:11:03.874Z,4.33
2019-05-22T09:13:33.141Z,4.07
2019-05-22T09:16:03.053Z,4.50
2019-05-22T09:18:32.234Z,5.67
2019-05-22T09:21:01.336Z,4.97
2019-05-22T09:23:30.498Z,5.23
2019-05-22T09:25:59.961Z,4.00
2019-05-22T09:28:29.260Z,4.93
2019-05-22T09:30:58.439Z,5.30
2019-05-22T09:33:28.450Z,4.63
2019-05-22T09:35:58.037Z,5.93
2019-05-22T09:38:27.202Z,5.67
2019-05-22T09:40:56.661Z,5.63
2019-05-22T09:43:25.838Z,5.63
2019-05-22T09:45:55.001Z,6.83
2019-05-22T09:48:24.296Z,7.17
2019-05-22T09:50:53.458Z,7.33
2019-05-22T09:53:23.273Z,7.70
2019-05-22T09:55:53.126Z,7.37
2019-05-22T09:58:22.297Z,7.10
2019-05-22T10:00:51.536Z,8.00
2019-05-22T10:03:21.266Z,8.70
2019-05-22T10:05:50.484Z,8.50
2019-05-22T10:08:19.850Z,8.80
2019-05-22T10:10:49.010Z,6.83
2019-05-22T10:13:18.389Z,9.17
2019-05-22T10:15:47.477Z,8.80
2019-05-22T10:18:17.238Z,9.57
2019-05-22T10:20:46.719Z,9.70
2019-05-22T10:23:16.638Z,10.07
2019-05-22T10:25:45.963Z,11.60
2019-05-22T10:28:15.545Z,11.23
2019-05-22T10:30:44.669Z,11.23
2019-05-22T10:33:13.847Z,13.60
2019-05-22T10:35:43.450Z,12.90
2019-05-22T10:38:12.766Z,13.57
2019-05-22T10:40:41.915Z,10.00
2019-05-22T10:43:11.079Z,12.83
2019-05-22T10:45:40.645Z,10.13
2019-05-22T10:48:09.744Z,12.70
2019-05-22T10:50:38.923Z,9.23
2019-05-22T10:53:08.546Z,9.23
2019-05-22T10:55:39.161Z,9.70
2019-05-22T10:58:08.386Z,9.53
2019-05-22T11:00:37.537Z,11.67
2019-05-22T11:03:07.017Z,10.07
2019-05-22T11:05:36.574Z,11.77
2019-05-22T11:08:06.845Z,11.87
2019-05-22T11:10:36.041Z,12.83
2019-05-22T11:13:05.393Z,14.90
2019-05-22T11:15:34.577Z,11.97
2019-05-22T11:18:03.737Z,13.10
2019-05-22T11:20:33.007Z,11.50
2019-05-22T11:23:02.969Z,11.67
2019-05-22T11:25:32.496Z,12.77
2019-05-22T11:28:01.684Z,13.40
2019-05-22T11:30:31.161Z,11.63
2019-05-22T11:33:01.055Z,12.37
2019-05-22T11:35:30.627Z,13.57
2019-05-22T11:38:00.097Z,11.33
2019-05-22T11:40:29.285Z,12.00
2019-05-22T11:42:58.616Z,10.97
2019-05-22T11:45:28.133Z,10.93
2019-05-22T11:47:57.316Z,11.20
2019-05-22T11:50:27.982Z,10.63
2019-05-22T11:52:57.142Z,11.33
2019-05-22T11:55:42.789Z,10.30
2019-05-22T11:57:57.053Z,11.47
2019-05-22T12:00:26.778Z,10.43
2019-05-22T12:02:56.626Z,12.83
2019-05-22T12:05:26.599Z,11.73
2019-05-22T12:07:55.766Z,9.50
2019-05-22T12:10:25.513Z,10.23
2019-05-22T12:12:55.105Z,9.67
2019-05-22T12:15:27.202Z,8.80
2019-05-22T12:17:56.438Z,8.93
2019-05-22T12:20:26.377Z,11.30
2019-05-22T12:22:56.265Z,11.13
2019-05-22T12:25:25.934Z,11.27
2019-05-22T12:27:55.650Z,13.00
2019-05-22T12:30:24.851Z,11.77
2019-05-22T12:32:55.390Z,13.83
2019-05-22T12:35:25.590Z,14.00
2019-05-22T12:37:55.533Z,15.50
2019-05-22T12:40:25.100Z,15.03
2019-05-22T12:42:54.445Z,12.57
2019-05-22T12:45:29.760Z,11.73
2019-05-22T12:48:00.317Z,13.07
2019-05-22T12:50:29.989Z,14.00
2019-05-22T12:53:00.519Z,11.83
2019-05-22T12:55:30.460Z,13.10
2019-05-22T12:57:59.666Z,13.07
2019-05-22T13:00:29.961Z,14.10
2019-05-22T13:03:00.101Z,11.17
2019-05-22T13:05:30.066Z,12.30
2019-05-22T13:07:59.397Z,9.67
2019-05-22T13:10:28.754Z,11.13
2019-05-22T13:12:57.929Z,8.33
2019-05-22T13:15:28.100Z,7.07
2019-05-22T13:17:57.820Z,6.40
2019-05-22T13:20:41.809Z,5.07
2019-05-22T13:23:01.791Z,5.40
2019-05-22T13:25:32.743Z,4.50
2019-05-22T13:28:03.246Z,5.23
2019-05-22T13:30:32.954Z,4.90
2019-05-22T13:33:02.113Z,4.33
2019-05-22T13:35:31.559Z,4.43
2019-05-22T13:38:01.278Z,4.37
2019-05-22T13:40:32.636Z,4.73
2019-05-22T13:43:02.220Z,4.00
2019-05-22T13:45:31.802Z,3.63
2019-05-22T13:48:01.064Z,3.40
2019-05-22T13:50:30.714Z,2.87
2019-05-22T13:53:03.096Z,3.43
2019-05-22T13:55:32.884Z,3.70
2019-05-22T13:58:02.108Z,3.47
2019-05-22T14:00:31.569Z,3.00
2019-05-22T14:03:00.853Z,3.10
2019-05-22T14:05:31.121Z,3.80
2019-05-22T14:08:00.254Z,3.30
2019-05-22T14:10:30.655Z,3.13
2019-05-22T14:13:01.151Z,3.43
2019-05-22T14:15:48.175Z,3.30
2019-05-22T14:18:01.391Z,3.37
2019-05-22T14:20:30.591Z,3.60
2019-05-22T14:22:59.773Z,4.70
2019-05-22T14:25:29.469Z,3.13
2019-05-22T14:27:58.572Z,5.03
2019-05-22T14:30:28.076Z,2.93
2019-05-22T14:32:57.770Z,3.03
2019-05-22T14:35:45.034Z,2.80
2019-05-22T14:37:59.642Z,2.53
2019-05-22T14:40:28.826Z,2.20
2019-05-22T14:42:58.055Z,2.57
2019-05-22T14:45:27.251Z,2.30
2019-05-22T14:47:56.459Z,2.53
2019-05-22T14:50:26.205Z,2.67
2019-05-22T14:52:55.378Z,2.40
2019-05-22T14:55:24.738Z,2.37
2019-05-22T14:57:53.899Z,2.33
2019-05-22T15:00:23.093Z,2.70
2019-05-22T15:02:56.573Z,2.20
2019-05-22T15:05:23.654Z,2.17
2019-05-22T15:07:52.886Z,2.17
2019-05-22T15:10:21.982Z,2.20
2019-05-22T15:12:51.561Z,2.67
2019-05-22T15:15:21.326Z,2.20
2019-05-22T15:17:50.894Z,2.43
2019-05-22T15:20:23.634Z,2.10
2019-05-22T15:22:55.989Z,3.13
2019-05-22T15:25:24.399Z,2.83
2019-05-22T15:27:54.714Z,2.27
2019-05-22T15:30:23.905Z,2.73
2019-05-22T15:32:53.276Z,2.87
2019-05-22T15:35:22.497Z,2.13
2019-05-22T15:37:51.913Z,2.10
2019-05-22T15:40:22.033Z,2.03
2019-05-22T15:42:51.237Z,2.17
2019-05-22T15:45:21.839Z,2.00
2019-05-22T15:47:55.461Z,2.10
2019-05-22T15:50:26.979Z,2.87
2019-05-22T15:52:59.783Z,2.00
2019-05-22T15:55:30.151Z,2.27
2019-05-22T15:57:59.805Z,2.00
2019-05-22T16:00:30.432Z,1.60
2019-05-22T16:02:59.941Z,2.03
2019-05-22T16:05:29.214Z,1.67
2019-05-22T16:07:58.420Z,1.90
2019-05-22T16:10:27.942Z,1.83
2019-05-22T16:12:57.106Z,1.60
2019-05-22T16:15:26.981Z,1.53
2019-05-22T16:18:10.272Z,1.97
2019-05-22T16:20:27.364Z,1.87
2019-05-22T16:22:57.721Z,1.80
2019-05-22T16:25:27.497Z,1.80
2019-05-22T16:27:56.748Z,1.50
2019-05-22T16:30:27.998Z,1.73
2019-05-22T16:32:57.873Z,1.40
2019-05-22T16:35:27.089Z,1.40
2019-05-22T16:37:57.409Z,1.53
2019-05-22T16:40:27.322Z,1.47
2019-05-22T16:42:57.600Z,1.40
2019-05-22T16:45:26.856Z,1.73
2019-05-22T16:47:56.453Z,1.30
2019-05-22T16:50:26.114Z,1.37
2019-05-22T16:52:56.384Z,1.53
2019-05-22T16:55:25.546Z,1.67
2019-05-22T16:57:55.551Z,1.40
2019-05-22T17:00:25.135Z,1.83
2019-05-22T17:02:54.321Z,1.73
2019-05-22T17:05:23.509Z,1.63
2019-05-22T17:07:54.034Z,1.83
2019-05-22T17:10:24.476Z,1.73
2019-05-22T17:12:53.772Z,2.00
2019-05-22T17:15:23.775Z,1.60
2019-05-22T17:17:53.347Z,1.60
2019-05-22T17:20:24.583Z,1.63
2019-05-22T17:22:54.126Z,1.60
2019-05-22T17:25:23.381Z,1.70
2019-05-22T17:27:52.559Z,1.50
2019-05-22T17:30:23.233Z,1.87
2019-05-22T17:32:52.459Z,1.60
2019-05-22T17:35:21.627Z,1.53
2019-05-22T17:37:50.818Z,1.83
2019-05-22T17:40:20.422Z,1.70
2019-05-22T17:42:50.010Z,1.50
2019-05-22T17:45:21.099Z,1.50
2019-05-22T17:47:50.333Z,2.77
2019-05-22T17:50:26.551Z,1.50
2019-05-22T17:52:51.154Z,1.70
2019-05-22T17:55:21.453Z,1.30
2019-05-22T17:57:51.105Z,1.43
2019-05-22T18:00:38.262Z,1.40
2019-05-22T18:03:08.665Z,1.47
2019-05-22T18:05:38.853Z,1.80
2019-05-22T18:08:08.533Z,2.03
2019-05-22T18:10:40.585Z,2.33
2019-05-22T18:13:10.771Z,1.73
2019-05-22T18:15:42.358Z,1.90
2019-05-22T18:18:12.805Z,1.67
2019-05-22T18:20:44.158Z,1.70
2019-05-22T18:23:13.424Z,1.90
2019-05-22T18:25:43.226Z,2.03
2019-05-22T18:28:12.367Z,1.63
2019-05-22T18:30:42.921Z,1.57
2019-05-22T18:33:12.886Z,1.57
2019-05-22T18:35:42.197Z,1.90
2019-05-22T18:38:11.592Z,1.70
2019-05-22T18:40:40.726Z,1.50
2019-05-22T18:43:10.497Z,1.50
2019-05-22T18:45:40.340Z,2.13
2019-05-22T18:48:09.587Z,1.20
2019-05-22T18:50:38.750Z,1.83
2019-05-22T18:53:08.098Z,1.53
2019-05-22T18:55:37.298Z,1.20
2019-05-22T18:58:06.462Z,1.77
2019-05-22T19:00:36.144Z,1.73
2019-05-22T19:03:05.718Z,2.07
2019-05-22T19:05:34.905Z,1.37
2019-05-22T19:08:04.013Z,1.00
2019-05-22T19:10:33.905Z,1.83
2019-05-22T19:13:03.085Z,1.67
2019-05-22T19:15:32.243Z,1.47
2019-05-22T19:18:02.147Z,1.10
2019-05-22T19:20:31.321Z,1.30
2019-05-22T19:23:01.824Z,1.37
2019-05-22T19:25:31.433Z,1.60
2019-05-22T19:28:00.630Z,1.83
2019-05-22T19:30:29.929Z,1.67
2019-05-22T19:32:59.119Z,1.60
2019-05-22T19:35:28.294Z,1.40
2019-05-22T19:37:58.407Z,1.27
2019-05-22T19:40:27.594Z,2.27
2019-05-22T19:42:56.797Z,1.70
2019-05-22T19:45:25.914Z,2.07
2019-05-22T19:47:57.083Z,1.57
2019-05-22T19:50:27.066Z,2.20
2019-05-22T19:52:56.781Z,1.87
2019-05-22T19:55:27.849Z,1.00
2019-05-22T19:57:57.178Z,1.63
2019-05-22T20:00:26.370Z,2.37
2019-05-22T20:02:55.979Z,2.23
2019-05-22T20:05:25.594Z,2.17
2019-05-22T20:07:54.878Z,1.40
2019-05-22T20:10:24.129Z,1.70
2019-05-22T20:12:53.561Z,1.70
2019-05-22T20:15:24.068Z,2.47
2019-05-22T20:17:53.289Z,2.63
2019-05-22T20:20:24.446Z,1.50
2019-05-22T20:22:53.678Z,1.63
2019-05-22T20:25:22.964Z,2.47
2019-05-22T20:27:52.133Z,1.97
2019-05-22T20:30:22.921Z,2.87
2019-05-22T20:32:52.092Z,1.60
2019-05-22T20:35:21.292Z,1.10
2019-05-22T20:37:50.786Z,2.47
2019-05-22T20:40:22.304Z,2.23
2019-05-22T20:42:51.584Z,2.17
2019-05-22T20:45:23.089Z,2.20
2019-05-22T20:48:17.798Z,1.83
2019-05-22T20:50:47.453Z,1.63
2019-05-22T20:53:17.518Z,1.53
2019-05-22T20:55:48.353Z,0.80
2019-05-22T20:58:19.594Z,3.00
2019-05-22T21:00:49.806Z,2.37
2019-05-22T21:03:19.212Z,1.33
2019-05-22T21:05:49.393Z,2.70
2019-05-22T21:08:19.420Z,2.03
2019-05-22T21:10:50.453Z,1.73
2019-05-22T21:13:20.051Z,2.10
2019-05-22T21:15:51.062Z,1.83
2019-05-22T21:18:23.557Z,1.70
2019-05-22T21:20:55.408Z,1.40
2019-05-22T21:23:24.461Z,3.07
2019-05-22T21:25:54.489Z,1.87
2019-05-22T21:28:24.757Z,1.70
2019-05-22T21:30:55.329Z,2.43
2019-05-22T21:33:25.537Z,2.37
2019-05-22T21:35:55.152Z,3.07
2019-05-22T21:38:25.107Z,1.37
2019-05-22T21:40:54.750Z,1.40
2019-05-22T21:43:24.557Z,0.93
2019-05-22T21:45:54.145Z,1.80
2019-05-22T21:48:23.747Z,1.27
2019-05-22T21:50:52.933Z,1.90
2019-05-22T21:53:22.142Z,2.60
2019-05-22T21:56:03.670Z,2.03
2019-05-22T21:58:22.159Z,1.80
2019-05-22T22:01:26.489Z,1.57
2019-05-22T22:04:15.903Z,2.40
2019-05-22T22:06:45.397Z,1.23
2019-05-22T22:09:16.294Z,1.87
2019-05-22T22:11:46.181Z,1.47
2019-05-22T22:14:16.505Z,1.87
2019-05-22T22:16:47.178Z,2.03
2019-05-22T22:19:18.384Z,1.83
2019-05-22T22:21:48.541Z,1.73
2019-05-22T22:24:17.890Z,2.83
2019-05-22T22:26:48.733Z,2.03
2019-05-22T22:29:19.212Z,1.93
2019-05-22T22:31:48.817Z,0.73
2019-05-22T22:34:25.865Z,2.00
2019-05-22T22:36:56.981Z,1.73
2019-05-22T22:39:27.833Z,1.83
2019-05-22T22:42:00.320Z,1.00
2019-05-22T22:44:31.009Z,1.63
2019-05-22T22:47:04.453Z,1.67
2019-05-22T22:49:35.141Z,1.50
2019-05-22T22:52:04.849Z,1.93
2019-05-22T22:54:34.657Z,1.60
2019-05-22T22:57:05.566Z,2.27
2019-05-22T22:59:34.755Z,1.43
2019-05-22T23:02:05.638Z,2.03
2019-05-22T23:04:35.589Z,2.10
2019-05-22T23:07:07.719Z,0.80
2019-05-22T23:09:37.249Z,2.07
2019-05-22T23:12:08.057Z,1.70
2019-05-22T23:14:38.562Z,0.77
2019-05-22T23:17:08.794Z,1.20
2019-05-22T23:19:40.769Z,2.73
2019-05-22T23:22:24.219Z,1.00
2019-05-22T23:24:54.313Z,1.17
2019-05-22T23:27:25.185Z,2.10
2019-05-22T23:29:56.249Z,1.37
2019-05-22T23:32:25.826Z,0.93
2019-05-22T23:34:55.629Z,1.77
2019-05-22T23:37:26.557Z,1.47
2019-05-22T23:39:55.725Z,0.97
2019-05-22T23:42:29.373Z,0.87
2019-05-22T23:44:58.538Z,0.53
2019-05-22T23:47:28.039Z,1.17
2019-05-22T23:49:57.209Z,0.57
2019-05-22T23:52:26.718Z,1.37
2019-05-22T23:54:55.918Z,0.87
2019-05-22T23:57:26.661Z,1.33
2019-05-22T23:59:58.858Z,1.60
